Port Charlotte, Florida
Current Conditions -  °F | °C
As of 2:53 PM on Saturday 25 Oct 2014 (Local Time) from KPGD Reporting Station
Clear Clear  
Wind Chill: 82°   Ceiling: Unl
Heat Index: 82°   Visibility: 10mi
Dew Point: 57°   Wind: 6mph
Humidity: 42%   Direction: 10°N
Pressure: 29.94"   Gusts: NA
Location:  26.98°N, 82.1°W
Report Text: KPGD 251853Z 01005KT 10SM CLR 28/14 A2994 RMK AO2 SLP140 T02780139
Loading
Personal Weather Stations






























Interactive Weather Map New forecast layout! Learn more

10-Day Weather Forecast

Advertisements
Track Severe Weather on mobile